Oberon — SKJF — position and weather

sailwx.info

Track history (hours):
 
Tides and Currents Weather Stations Pressure Air Temp Water Temp Dewpoint Dewpoint Depression Visibility Wind Speed Wind Dir Waves Ship Positions

Oberon

Last reported at 2016-Feb-01 05:33 UTC. Time now 2016-Feb-07 01:28 UTC.
Position N 01°14' E 104°02'.

Length 232 m; draft 9.5 m.

Type: Cargo ship. MMSI: 266283000.

Date/timePositionNaut miles runAvg speedWind from/ knotsBaromVisibWave heightAir tempDewpointWater temp
2016-Feb-01 05:33N 01°14' E 104°02'1312.8
2016-Feb-01 04:33N 01°11' E 103°49'9 8.7
2016-Feb-01 03:33N 01°18' E 103°44'0 0.1
2016-Feb-01 02:26N 01°18' E 103°44'0 0.0
2016-Feb-01 01:26N 01°18' E 103°44'0 0.0
2016-Feb-01 00:32N 01°18' E 103°44'0 0.0
2016-Jan-31 23:26N 01°18' E 103°44'0 0.0
2016-Jan-31 22:32N 01°18' E 103°44'0 0.0
2016-Jan-31 21:32N 01°18' E 103°44'0 0.0
2016-Jan-31 20:29N 01°18' E 103°44'0 0.0
2016-Jan-31 19:32N 01°18' E 103°44'0 0.0
2016-Jan-31 18:32N 01°18' E 103°44'0 0.0
2016-Jan-31 17:32N 01°18' E 103°44'0 0.0
2016-Jan-31 16:32N 01°18' E 103°44'0 0.0
2016-Jan-31 15:32N 01°18' E 103°44'0 0.0
2016-Jan-31 14:26N 01°18' E 103°44'0 0.0
2016-Jan-31 13:29N 01°18' E 103°44'0 0.0
2016-Jan-31 12:32N 01°18' E 103°44'0 0.0
2016-Jan-31 11:32N 01°18' E 103°44'0 0.0
2016-Jan-31 10:32N 01°18' E 103°44'0 0.0
2016-Jan-31 09:32N 01°18' E 103°44'0 0.0
2016-Jan-31 08:32N 01°18' E 103°44'0 0.0
2016-Jan-31 07:23N 01°18' E 103°44'0 0.0
2016-Jan-31 06:32N 01°18' E 103°44'0 0.0
2016-Jan-31 05:32N 01°18' E 103°44'0 0.0
2016-Jan-31 04:26N 01°18' E 103°44'0 0.0
2016-Jan-31 03:32N 01°18' E 103°44'0 0.0
2016-Jan-31 02:32N 01°18' E 103°44'0 0.0
2016-Jan-31 01:29N 01°18' E 103°44'0 0.0
2016-Jan-31 00:32N 01°18' E 103°44'0 0.1
2016-Jan-30 23:33N 01°18' E 103°44'8 7.8
2016-Jan-30 22:33N 01°13' E 103°49'7 7.4
2016-Jan-30 21:33N 01°14' E 103°56'12 9.5
2016-Jan-30 20:18N 01°17' E 104°08'  
2016-Jan-25 12:12S 31°40' E 115°24'1320.8
2016-Jan-25 11:34S 31°51' E 115°33'1615.5
2016-Jan-25 10:33S 32°03' E 115°43'2 1.6
2016-Jan-25 09:33S 32°02' E 115°45'0 0.0
2016-Jan-25 08:33S 32°02' E 115°45'0 0.0
2016-Jan-25 07:33S 32°02' E 115°45'0 0.0
2016-Jan-25 06:33S 32°02' E 115°45'0 0.0
2016-Jan-25 05:33S 32°02' E 115°45'0 0.0
2016-Jan-25 04:33S 32°02' E 115°45'0 0.0
2016-Jan-25 03:33S 32°02' E 115°45'0 0.0
2016-Jan-25 02:33S 32°02' E 115°45'0 0.0
2016-Jan-25 01:33S 32°02' E 115°45'0 0.0
2016-Jan-25 00:33S 32°02' E 115°45'0 0.0
2016-Jan-24 23:33S 32°02' E 115°45'0 0.0
2016-Jan-24 22:34S 32°02' E 115°45'0 0.0
2016-Jan-24 21:33S 32°02' E 115°45'0 0.3
2016-Jan-24 20:34S 32°03' E 115°45'5 5.2
2016-Jan-24 19:33S 31°58' E 115°41'1414.5
2016-Jan-24 18:33S 31°56' E 115°25'4515.0
2016-Jan-24 15:33S 32°30' E 114°51'2214.7
2016-Jan-24 14:05S 32°50' E 114°41'  
Track history (hours):
 
Tides and Currents Weather Stations Pressure Air Temp Water Temp Dewpoint Dewpoint Depression Visibility Wind Speed Wind Dir Waves Ship Positions

Oberon

Last reported at 2016-Feb-01 05:33 UTC. Time now 2016-Feb-07 01:28 UTC.
Position N 01°14' E 104°02'.

Length 232 m; draft 9.5 m.

Type: Cargo ship. MMSI: 266283000.

Date/timePositionNaut miles runAvg speedWind from/ knotsBaromVisibWave heightAir tempDewpointWater temp
2016-Feb-01 05:33N 01°14' E 104°02'1312.8
2016-Feb-01 04:33N 01°11' E 103°49'9 8.7
2016-Feb-01 03:33N 01°18' E 103°44'0 0.1
2016-Feb-01 02:26N 01°18' E 103°44'0 0.0
2016-Feb-01 01:26N 01°18' E 103°44'0 0.0
2016-Feb-01 00:32N 01°18' E 103°44'0 0.0
2016-Jan-31 23:26N 01°18' E 103°44'0 0.0
2016-Jan-31 22:32N 01°18' E 103°44'0 0.0
2016-Jan-31 21:32N 01°18' E 103°44'0 0.0
2016-Jan-31 20:29N 01°18' E 103°44'0 0.0
2016-Jan-31 19:32N 01°18' E 103°44'0 0.0
2016-Jan-31 18:32N 01°18' E 103°44'0 0.0
2016-Jan-31 17:32N 01°18' E 103°44'0 0.0
2016-Jan-31 16:32N 01°18' E 103°44'0 0.0
2016-Jan-31 15:32N 01°18' E 103°44'0 0.0
2016-Jan-31 14:26N 01°18' E 103°44'0 0.0
2016-Jan-31 13:29N 01°18' E 103°44'0 0.0
2016-Jan-31 12:32N 01°18' E 103°44'0 0.0
2016-Jan-31 11:32N 01°18' E 103°44'0 0.0
2016-Jan-31 10:32N 01°18' E 103°44'0 0.0
2016-Jan-31 09:32N 01°18' E 103°44'0 0.0
2016-Jan-31 08:32N 01°18' E 103°44'0 0.0
2016-Jan-31 07:23N 01°18' E 103°44'0 0.0
2016-Jan-31 06:32N 01°18' E 103°44'0 0.0
2016-Jan-31 05:32N 01°18' E 103°44'0 0.0
2016-Jan-31 04:26N 01°18' E 103°44'0 0.0
2016-Jan-31 03:32N 01°18' E 103°44'0 0.0
2016-Jan-31 02:32N 01°18' E 103°44'0 0.0
2016-Jan-31 01:29N 01°18' E 103°44'0 0.0
2016-Jan-31 00:32N 01°18' E 103°44'0 0.1
2016-Jan-30 23:33N 01°18' E 103°44'8 7.8
2016-Jan-30 22:33N 01°13' E 103°49'7 7.4
2016-Jan-30 21:33N 01°14' E 103°56'12 9.5
2016-Jan-30 20:18N 01°17' E 104°08'  
2016-Jan-25 12:12S 31°40' E 115°24'1320.8
2016-Jan-25 11:34S 31°51' E 115°33'1615.5
2016-Jan-25 10:33S 32°03' E 115°43'2 1.6
2016-Jan-25 09:33S 32°02' E 115°45'0 0.0
2016-Jan-25 08:33S 32°02' E 115°45'0 0.0
2016-Jan-25 07:33S 32°02' E 115°45'0 0.0
2016-Jan-25 06:33S 32°02' E 115°45'0 0.0
2016-Jan-25 05:33S 32°02' E 115°45'0 0.0
2016-Jan-25 04:33S 32°02' E 115°45'0 0.0
2016-Jan-25 03:33S 32°02' E 115°45'0 0.0
2016-Jan-25 02:33S 32°02' E 115°45'0 0.0
2016-Jan-25 01:33S 32°02' E 115°45'0 0.0
2016-Jan-25 00:33S 32°02' E 115°45'0 0.0
2016-Jan-24 23:33S 32°02' E 115°45'0 0.0
2016-Jan-24 22:34S 32°02' E 115°45'0 0.0
2016-Jan-24 21:33S 32°02' E 115°45'0 0.3
2016-Jan-24 20:34S 32°03' E 115°45'5 5.2
2016-Jan-24 19:33S 31°58' E 115°41'1414.5
2016-Jan-24 18:33S 31°56' E 115°25'4515.0
2016-Jan-24 15:33S 32°30' E 114°51'2214.7
2016-Jan-24 14:05S 32°50' E 114°41'  

Dump ship's entire track history